Time;durP1;ratioP1;P1;durP2;ratioP2;P2;SDS_P1;SDS_P2;PMS_P1;PMS_P2;Temp;Humidity;BMP_temperature;BMP_pressure;BME280_temperature;BME280_humidity;BME280_pressure;Samples;Min_cycle;Max_cycle;Signal;HPM_P1;HPM_P2
2024/02/02 00:00:17;;;;;;;26.35;12.25;;;;;;;;;;6301593;28;20075;-76
2024/02/02 00:03:19;;;;;;;27.65;13.82;;;;;;;;;;6289712;28;20044;-76
2024/02/02 00:06:22;;;;;;;24.35;11.93;;;;;;;;;;6301028;28;20040;-76
2024/02/02 00:09:25;;;;;;;21.00;12.27;;;;;;;;;;6291644;28;20040;-75
2024/02/02 00:12:27;;;;;;;20.90;12.45;;;;;;;;;;6301592;28;20608;-76
2024/02/02 00:15:30;;;;;;;20.05;13.13;;;;;;;;;;6286206;28;20823;-75
2024/02/02 00:18:32;;;;;;;24.33;13.68;;;;;;;;;;6300096;28;20064;-75
2024/02/02 00:21:34;;;;;;;20.88;12.43;;;;;;;;;;6303637;28;20055;-74
2024/02/02 00:24:36;;;;;;;22.00;12.05;;;;;;;;;;6267949;28;20055;-75
2024/02/02 00:27:39;;;;;;;25.95;14.35;;;;;;;;;;6279759;28;20589;-75
2024/02/02 00:30:41;;;;;;;21.17;12.13;;;;;;;;;;6299302;28;20044;-74
2024/02/02 00:33:43;;;;;;;24.70;12.23;;;;;;;;;;6282290;28;20044;-74
2024/02/02 00:36:46;;;;;;;20.75;12.90;;;;;;;;;;6281324;28;20040;-75
2024/02/02 00:39:48;;;;;;;24.58;11.27;;;;;;;;;;6264625;28;20036;-74
2024/02/02 00:42:50;;;;;;;25.08;12.00;;;;;;;;;;6275535;28;20043;-75
2024/02/02 00:45:52;;;;;;;20.65;12.27;;;;;;;;;;6265197;28;20044;-74
2024/02/02 00:48:55;;;;;;;18.30;11.70;;;;;;;;;;6299995;28;20040;-74
2024/02/02 00:51:57;;;;;;;27.83;12.75;;;;;;;;;;6247240;28;20237;-74
2024/02/02 00:55:00;;;;;;;21.05;13.25;;;;;;;;;;6265901;28;20055;-73
2024/02/02 00:58:04;;;;;;;24.23;13.63;;;;;;;;;;6273780;28;20049;-75
2024/02/02 01:01:06;;;;;;;21.20;12.65;;;;;;;;;;6301471;28;20063;-74
2024/02/02 01:04:08;;;;;;;27.60;12.68;;;;;;;;;;6261865;28;20559;-74
2024/02/02 01:07:14;;;;;;;30.58;15.20;;;;;;;;;;6270176;28;20074;-74
2024/02/02 01:10:18;;;;;;;23.52;12.73;;;;;;;;;;6300742;28;20528;-74
2024/02/02 01:13:20;;;;;;;21.58;11.13;;;;;;;;;;6281480;28;20140;-76
2024/02/02 01:16:23;;;;;;;22.92;16.77;;;;;;;;;;6297135;28;20434;-75
2024/02/02 01:19:25;;;;;;;21.45;12.10;;;;;;;;;;6280453;28;20572;-75
2024/02/02 01:22:28;;;;;;;18.00;11.02;;;;;;;;;;6285369;28;20108;-75
2024/02/02 01:25:30;;;;;;;20.35;11.32;;;;;;;;;;6300520;28;20040;-76
2024/02/02 01:28:32;;;;;;;21.17;12.43;;;;;;;;;;6279836;28;20209;-75
2024/02/02 01:31:34;;;;;;;21.58;12.68;;;;;;;;;;6285528;28;20079;-74
2024/02/02 01:34:36;;;;;;;22.50;13.30;;;;;;;;;;6280948;28;20098;-75
2024/02/02 01:37:40;;;;;;;24.98;14.45;;;;;;;;;;6262986;28;20536;-75
2024/02/02 01:40:42;;;;;;;22.80;12.23;;;;;;;;;;6279448;28;20041;-76
2024/02/02 01:43:44;;;;;;;20.85;12.35;;;;;;;;;;6267584;28;20040;-75
2024/02/02 01:46:47;;;;;;;20.45;11.23;;;;;;;;;;6282080;28;20053;-76
2024/02/02 01:49:49;;;;;;;19.67;14.32;;;;;;;;;;6266304;28;20733;-75
2024/02/02 01:52:51;;;;;;;18.88;10.50;;;;;;;;;;6268228;28;20048;-75
2024/02/02 01:55:54;;;;;;;22.00;14.77;;;;;;;;;;6262500;28;20494;-75
2024/02/02 01:58:56;;;;;;;24.60;12.77;;;;;;;;;;6270045;28;20040;-75
2024/02/02 02:01:58;;;;;;;20.55;12.23;;;;;;;;;;6265894;28;20666;-76
2024/02/02 02:05:00;;;;;;;16.25;11.27;;;;;;;;;;6272739;28;20711;-76
2024/02/02 02:08:05;;;;;;;14.25;9.40;;;;;;;;;;6299067;28;20059;-75
2024/02/02 02:11:08;;;;;;;16.90;7.72;;;;;;;;;;6278606;28;20040;-75
2024/02/02 02:14:10;;;;;;;13.85;8.45;;;;;;;;;;6259864;28;20036;-74
2024/02/02 02:17:12;;;;;;;15.20;9.05;;;;;;;;;;6250376;28;20134;-75
2024/02/02 02:20:20;;;;;;;13.10;6.68;;;;;;;;;;6294931;28;20625;-76
2024/02/02 02:23:23;;;;;;;13.73;8.55;;;;;;;;;;6272612;28;20044;-75
2024/02/02 02:26:28;;;;;;;14.50;8.43;;;;;;;;;;6284671;28;20052;-75
2024/02/02 02:29:30;;;;;;;11.40;7.35;;;;;;;;;;6282782;28;20043;-76
2024/02/02 02:32:32;;;;;;;9.90;5.80;;;;;;;;;;6295963;28;20054;-75
2024/02/02 02:35:35;;;;;;;20.05;11.10;;;;;;;;;;6254621;28;20044;-75
2024/02/02 02:38:38;;;;;;;19.80;11.52;;;;;;;;;;6299124;28;20794;-75
2024/02/02 02:41:41;;;;;;;18.13;11.38;;;;;;;;;;6268565;28;20115;-75
2024/02/02 02:44:43;;;;;;;18.08;10.70;;;;;;;;;;6285632;28;20040;-76
2024/02/02 02:47:45;;;;;;;15.50;10.07;;;;;;;;;;6305141;28;20119;-76
2024/02/02 02:50:47;;;;;;;15.52;10.00;;;;;;;;;;6288007;28;20043;-76
2024/02/02 02:53:49;;;;;;;15.07;8.73;;;;;;;;;;6287685;28;20785;-75
2024/02/02 02:56:52;;;;;;;18.55;9.77;;;;;;;;;;6299275;28;20050;-75
2024/02/02 02:59:54;;;;;;;18.55;8.73;;;;;;;;;;6286348;28;20076;-75
2024/02/02 03:02:57;;;;;;;18.00;8.70;;;;;;;;;;6275873;28;20043;-75
2024/02/02 03:05:59;;;;;;;14.10;7.80;;;;;;;;;;6272748;28;20087;-75
2024/02/02 03:09:04;;;;;;;15.27;7.65;;;;;;;;;;6309326;28;20040;-75
2024/02/02 03:12:06;;;;;;;13.20;7.82;;;;;;;;;;6278377;28;20163;-75
2024/02/02 03:15:09;;;;;;;14.80;8.88;;;;;;;;;;6270346;28;20143;-75
2024/02/02 03:18:12;;;;;;;15.15;9.10;;;;;;;;;;6262290;28;20078;-75
2024/02/02 03:21:14;;;;;;;21.35;12.40;;;;;;;;;;6270225;28;20164;-75
2024/02/02 03:24:16;;;;;;;15.82;9.32;;;;;;;;;;6303832;28;20190;-75
2024/02/02 03:27:20;;;;;;;13.52;9.57;;;;;;;;;;6282211;28;20040;-74
2024/02/02 03:30:22;;;;;;;11.02;6.65;;;;;;;;;;6287501;28;20047;-75
2024/02/02 03:33:24;;;;;;;18.48;8.98;;;;;;;;;;6289327;28;20044;-74
2024/02/02 03:36:26;;;;;;;12.10;8.02;;;;;;;;;;6308402;28;20635;-74
2024/02/02 03:39:29;;;;;;;12.57;9.25;;;;;;;;;;6305557;28;20179;-74
2024/02/02 03:42:31;;;;;;;13.38;7.88;;;;;;;;;;6260879;28;20067;-74
2024/02/02 03:45:33;;;;;;;14.43;9.32;;;;;;;;;;6283471;28;20587;-74
2024/02/02 03:48:36;;;;;;;18.40;9.50;;;;;;;;;;6305231;28;20032;-75
2024/02/02 03:51:38;;;;;;;28.17;15.27;;;;;;;;;;6300675;28;20492;-74
2024/02/02 03:54:41;;;;;;;18.52;10.02;;;;;;;;;;6280422;28;20043;-74
2024/02/02 03:57:43;;;;;;;15.50;9.98;;;;;;;;;;6267376;28;20039;-74
2024/02/02 04:00:46;;;;;;;17.65;10.52;;;;;;;;;;6291706;28;20052;-74
2024/02/02 04:03:48;;;;;;;19.02;10.02;;;;;;;;;;6292782;28;20201;-74
2024/02/02 04:06:51;;;;;;;16.15;12.00;;;;;;;;;;6283112;28;20082;-74
2024/02/02 04:09:54;;;;;;;19.25;10.40;;;;;;;;;;6269054;28;20643;-74
2024/02/02 04:12:57;;;;;;;19.23;9.75;;;;;;;;;;6281959;28;20040;-74
2024/02/02 04:16:00;;;;;;;22.05;12.13;;;;;;;;;;6308681;28;20165;-75
2024/02/02 04:19:02;;;;;;;17.30;11.45;;;;;;;;;;6280145;28;20044;-75
2024/02/02 04:22:04;;;;;;;21.67;13.25;;;;;;;;;;6285459;28;20086;-74
2024/02/02 04:25:07;;;;;;;18.00;12.85;;;;;;;;;;6283193;28;20804;-75
2024/02/02 04:28:09;;;;;;;16.02;9.77;;;;;;;;;;6298919;28;20063;-74
2024/02/02 04:31:11;;;;;;;21.13;14.18;;;;;;;;;;6267770;28;20044;-75
2024/02/02 04:34:13;;;;;;;20.00;13.23;;;;;;;;;;6266438;28;20048;-75
2024/02/02 04:37:15;;;;;;;24.70;16.23;;;;;;;;;;6304234;28;20063;-75
2024/02/02 04:40:18;;;;;;;22.00;16.42;;;;;;;;;;6271134;28;20040;-76
2024/02/02 04:43:20;;;;;;;23.75;14.18;;;;;;;;;;6303806;28;20565;-74
2024/02/02 04:46:23;;;;;;;18.55;12.93;;;;;;;;;;6299044;28;20036;-74
2024/02/02 04:49:26;;;;;;;24.50;16.30;;;;;;;;;;6292952;28;20044;-74
2024/02/02 04:52:29;;;;;;;27.00;22.65;;;;;;;;;;6301677;28;20437;-76
2024/02/02 04:55:31;;;;;;;29.75;14.82;;;;;;;;;;6285905;28;20083;-75
2024/02/02 04:58:33;;;;;;;25.55;14.98;;;;;;;;;;6280008;28;20043;-75
2024/02/02 05:01:35;;;;;;;22.17;14.88;;;;;;;;;;6296516;28;20058;-75
2024/02/02 05:04:38;;;;;;;22.58;14.73;;;;;;;;;;6303648;28;20048;-75
2024/02/02 05:07:40;;;;;;;30.90;20.80;;;;;;;;;;6268759;28;20060;-75
2024/02/02 05:10:43;;;;;;;24.73;15.68;;;;;;;;;;6279373;28;20049;-74
2024/02/02 05:13:45;;;;;;;21.67;13.73;;;;;;;;;;6245728;28;20044;-75
2024/02/02 05:16:48;;;;;;;21.27;13.70;;;;;;;;;;6293859;28;20932;-74
2024/02/02 05:19:50;;;;;;;26.55;17.67;;;;;;;;;;6301502;28;20044;-74
2024/02/02 05:22:52;;;;;;;28.88;17.90;;;;;;;;;;6296560;28;20097;-74
2024/02/02 05:25:54;;;;;;;28.15;17.63;;;;;;;;;;6299189;28;20043;-74
2024/02/02 05:28:56;;;;;;;25.88;16.30;;;;;;;;;;6301677;28;20074;-74
2024/02/02 05:31:59;;;;;;;23.38;16.63;;;;;;;;;;6300798;28;20052;-74
2024/02/02 05:35:01;;;;;;;40.05;19.88;;;;;;;;;;6262558;28;20093;-75
2024/02/02 05:38:03;;;;;;;27.52;17.52;;;;;;;;;;6301131;28;20044;-74
2024/02/02 05:41:06;;;;;;;23.48;15.52;;;;;;;;;;6281875;28;20044;-74
2024/02/02 05:44:08;;;;;;;31.10;19.60;;;;;;;;;;6277263;28;20051;-74
2024/02/02 05:47:10;;;;;;;23.90;14.95;;;;;;;;;;6292993;28;20432;-75
2024/02/02 05:50:12;;;;;;;36.03;22.45;;;;;;;;;;6285406;28;20037;-75
2024/02/02 05:53:15;;;;;;;39.83;28.40;;;;;;;;;;6269871;28;20422;-74
2024/02/02 05:56:19;;;;;;;34.63;20.00;;;;;;;;;;6283538;28;20076;-74
2024/02/02 05:59:22;;;;;;;30.38;19.38;;;;;;;;;;6272971;28;20059;-75
2024/02/02 06:02:25;;;;;;;27.88;18.75;;;;;;;;;;6292778;28;20886;-74
2024/02/02 06:05:29;;;;;;;40.20;24.15;;;;;;;;;;6296069;28;20055;-75
2024/02/02 06:08:32;;;;;;;35.17;21.23;;;;;;;;;;6252170;28;20143;-76
2024/02/02 06:11:36;;;;;;;28.70;18.50;;;;;;;;;;6285410;28;20055;-76
2024/02/02 06:14:39;;;;;;;25.42;15.93;;;;;;;;;;6281550;28;20075;-74
2024/02/02 06:17:42;;;;;;;38.85;24.00;;;;;;;;;;6285232;28;20554;-77
2024/02/02 06:20:46;;;;;;;31.92;21.67;;;;;;;;;;6308492;28;20037;-75
2024/02/02 06:23:48;;;;;;;20.70;16.80;;;;;;;;;;6284624;28;20044;-75
2024/02/02 06:26:50;;;;;;;26.85;16.77;;;;;;;;;;6292088;28;20123;-73
2024/02/02 06:29:53;;;;;;;26.20;17.58;;;;;;;;;;6284094;28;20043;-74
2024/02/02 06:32:59;;;;;;;27.13;19.83;;;;;;;;;;6312493;28;20040;-76
2024/02/02 06:36:03;;;;;;;42.03;25.17;;;;;;;;;;6289261;28;20059;-76
2024/02/02 06:39:05;;;;;;;29.70;21.92;;;;;;;;;;6287947;28;20473;-76
2024/02/02 06:42:07;;;;;;;26.35;17.42;;;;;;;;;;6299269;28;20512;-76
2024/02/02 06:45:09;;;;;;;33.72;22.05;;;;;;;;;;6290276;28;20551;-77
2024/02/02 06:48:13;;;;;;;26.60;17.75;;;;;;;;;;6265878;28;20043;-75
2024/02/02 06:51:17;;;;;;;34.28;20.33;;;;;;;;;;6302190;28;20075;-76
2024/02/02 06:54:20;;;;;;;29.58;19.65;;;;;;;;;;6307621;28;20044;-76
2024/02/02 06:57:29;;;;;;;31.63;22.45;;;;;;;;;;6286609;28;20493;-76
2024/02/02 07:00:32;;;;;;;32.33;21.08;;;;;;;;;;6270233;28;20052;-75
2024/02/02 07:03:36;;;;;;;34.63;21.33;;;;;;;;;;6261869;28;20055;-75
2024/02/02 07:06:38;;;;;;;28.70;18.95;;;;;;;;;;6289250;28;20145;-75
2024/02/02 07:09:48;;;;;;;29.95;17.55;;;;;;;;;;6288879;28;20059;-75
2024/02/02 07:13:00;;;;;;;27.00;19.40;;;;;;;;;;6285201;28;20041;-76
2024/02/02 07:16:03;;;;;;;19.25;12.60;;;;;;;;;;6265075;28;20033;-76
2024/02/02 07:19:19;;;;;;;24.17;15.85;;;;;;;;;;6304786;28;20101;-75
2024/02/02 07:22:41;;;;;;;33.08;20.58;;;;;;;;;;6281446;28;20054;-76
2024/02/02 07:25:44;;;;;;;28.63;17.02;;;;;;;;;;6287287;28;20044;-75
2024/02/02 07:28:47;;;;;;;36.75;24.45;;;;;;;;;;6287253;28;20047;-75
2024/02/02 07:31:49;;;;;;;31.90;21.40;;;;;;;;;;6298865;28;20040;-75
2024/02/02 07:34:52;;;;;;;38.20;21.90;;;;;;;;;;6284953;28;20051;-75
2024/02/02 07:38:06;;;;;;;28.73;13.95;;;;;;;;;;6298922;28;20052;-76
2024/02/02 07:41:10;;;;;;;35.45;21.27;;;;;;;;;;6291478;28;20036;-76
2024/02/02 07:44:12;;;;;;;33.47;17.80;;;;;;;;;;6251719;28;20059;-77
2024/02/02 07:47:15;;;;;;;27.63;19.23;;;;;;;;;;6299243;28;21282;-76
2024/02/02 07:50:17;;;;;;;21.70;13.88;;;;;;;;;;6305370;28;20044;-76
2024/02/02 07:53:20;;;;;;;29.48;18.00;;;;;;;;;;6240869;28;20074;-76
2024/02/02 07:56:24;;;;;;;26.95;16.83;;;;;;;;;;6302095;28;20579;-76
2024/02/02 07:59:27;;;;;;;24.40;15.63;;;;;;;;;;6291017;28;20052;-76
2024/02/02 08:02:29;;;;;;;36.63;20.85;;;;;;;;;;6269515;28;20072;-76
2024/02/02 08:05:36;;;;;;;33.40;17.90;;;;;;;;;;6280278;28;20049;-76
2024/02/02 08:08:38;;;;;;;37.72;22.83;;;;;;;;;;6279252;28;20095;-76
2024/02/02 08:11:41;;;;;;;38.70;21.90;;;;;;;;;;6291263;28;20073;-76
2024/02/02 08:14:43;;;;;;;32.55;23.65;;;;;;;;;;6279530;28;20036;-76
2024/02/02 08:17:45;;;;;;;28.38;17.55;;;;;;;;;;6268602;28;20064;-75
2024/02/02 08:20:48;;;;;;;27.52;17.58;;;;;;;;;;6270250;28;20047;-76
2024/02/02 08:23:50;;;;;;;30.02;16.02;;;;;;;;;;6276745;28;20055;-76
2024/02/02 08:26:53;;;;;;;20.20;13.05;;;;;;;;;;6308538;28;20036;-76
2024/02/02 08:29:55;;;;;;;22.92;16.48;;;;;;;;;;6280331;28;20433;-76
2024/02/02 08:32:58;;;;;;;25.30;15.10;;;;;;;;;;6282408;28;20052;-74
2024/02/02 08:36:03;;;;;;;21.75;14.70;;;;;;;;;;6288611;28;20902;-75
2024/02/02 08:39:08;;;;;;;22.95;15.30;;;;;;;;;;6299245;28;20047;-75
2024/02/02 08:42:22;;;;;;;21.98;13.50;;;;;;;;;;6256812;28;20587;-75
2024/02/02 08:45:40;;;;;;;21.75;14.63;;;;;;;;;;6280703;28;20052;-76
2024/02/02 08:48:46;;;;;;;;;;;;;;;;;;6301849;28;20040;-76
2024/02/02 08:51:51;;;;;;;24.98;15.02;;;;;;;;;;6293911;28;19924;-75
2024/02/02 08:54:53;;;;;;;22.58;14.30;;;;;;;;;;6306493;28;20052;-75
2024/02/02 08:58:10;;;;;;;22.42;13.02;;;;;;;;;;6278323;28;20530;-75
2024/02/02 09:01:30;;;;;;;22.38;13.10;;;;;;;;;;6284575;28;20093;-75
2024/02/02 09:05:18;;;;;;;30.65;15.45;;;;;;;;;;6283605;28;20048;-75
2024/02/02 09:08:27;;;;;;;16.90;9.82;;;;;;;;;;6282519;28;20045;-75
2024/02/02 09:11:30;;;;;;;18.45;10.65;;;;;;;;;;6266683;28;20569;-74
2024/02/02 09:14:32;;;;;;;18.55;14.30;;;;;;;;;;6280723;28;20790;-75
2024/02/02 09:17:35;;;;;;;15.13;12.52;;;;;;;;;;6286000;28;20143;-75
2024/02/02 09:20:49;;;;;;;15.85;12.70;;;;;;;;;;6268173;28;20032;-75
2024/02/02 09:23:51;;;;;;;;;;;;;;;;;;6272992;28;20055;-75
2024/02/02 09:26:54;;;;;;;20.67;11.40;;;;;;;;;;6283281;28;19931;-75
2024/02/02 09:29:57;;;;;;;13.57;8.35;;;;;;;;;;6287221;28;20051;-75
2024/02/02 09:32:59;;;;;;;13.70;10.82;;;;;;;;;;6282200;28;20749;-76
2024/02/02 09:36:03;;;;;;;14.13;8.57;;;;;;;;;;6288861;28;20097;-75
2024/02/02 09:39:20;;;;;;;7.85;6.00;;;;;;;;;;6289980;28;20044;-74
2024/02/02 09:42:58;;;;;;;15.32;9.32;;;;;;;;;;6277861;28;20082;-74
2024/02/02 09:46:25;;;;;;;17.38;11.65;;;;;;;;;;6226011;28;20058;-75
2024/02/02 09:49:50;;;;;;;20.95;14.02;;;;;;;;;;6297207;28;20448;-75
2024/02/02 09:53:11;;;;;;;11.77;9.18;;;;;;;;;;6268565;28;20425;-75
2024/02/02 09:56:26;;;;;;;17.23;9.57;;;;;;;;;;6296933;28;20052;-75
2024/02/02 09:59:41;;;;;;;16.05;12.75;;;;;;;;;;6288999;28;20089;-75
2024/02/02 10:03:08;;;;;;;14.23;12.65;;;;;;;;;;6313053;28;20096;-75
2024/02/02 10:06:34;;;;;;;14.95;8.98;;;;;;;;;;6295717;28;20064;-74
2024/02/02 10:09:52;;;;;;;13.38;10.15;;;;;;;;;;6293198;28;20052;-75
2024/02/02 10:12:57;;;;;;;15.32;9.18;;;;;;;;;;6329314;28;20085;-75
2024/02/02 10:16:10;;;;;;;13.93;8.73;;;;;;;;;;6286021;28;20094;-74
2024/02/02 10:19:33;;;;;;;14.18;8.98;;;;;;;;;;6305591;28;20051;-74
2024/02/02 10:23:00;;;;;;;12.50;8.32;;;;;;;;;;6266916;28;20048;-74
2024/02/02 10:26:16;;;;;;;13.40;8.35;;;;;;;;;;6288412;28;20044;-74
2024/02/02 10:29:46;;;;;;;13.82;8.50;;;;;;;;;;6287109;28;20065;-74
2024/02/02 10:33:35;;;;;;;10.90;8.02;;;;;;;;;;6262649;28;20559;-75
2024/02/02 10:37:06;;;;;;;12.77;7.47;;;;;;;;;;6245622;28;20049;-75
2024/02/02 10:40:36;;;;;;;9.80;7.68;;;;;;;;;;6306608;28;20040;-74
2024/02/02 10:43:53;;;;;;;9.10;6.05;;;;;;;;;;6276494;28;20245;-76
2024/02/02 10:47:10;;;;;;;12.43;9.23;;;;;;;;;;6305200;28;20044;-74
2024/02/02 10:50:46;;;;;;;9.05;7.15;;;;;;;;;;6286987;28;20547;-74
2024/02/02 10:54:22;;;;;;;13.32;11.05;;;;;;;;;;6274917;28;20537;-75
2024/02/02 10:57:33;;;;;;;11.80;8.50;;;;;;;;;;6301909;28;20046;-75
2024/02/02 11:00:44;;;;;;;11.23;7.28;;;;;;;;;;6262150;28;20390;-75
2024/02/02 11:03:51;;;;;;;11.80;8.77;;;;;;;;;;6288830;28;20048;-74
2024/02/02 11:07:04;;;;;;;12.15;6.72;;;;;;;;;;6289056;28;20052;-75
2024/02/02 11:10:12;;;;;;;16.80;8.05;;;;;;;;;;6269236;28;20036;-75
2024/02/02 11:13:23;;;;;;;15.00;10.77;;;;;;;;;;6297704;28;20048;-75
2024/02/02 11:16:33;;;;;;;13.20;7.75;;;;;;;;;;6266509;28;20031;-74
2024/02/02 11:20:08;;;;;;;13.77;9.48;;;;;;;;;;6264007;28;20044;-75
2024/02/02 11:23:24;;;;;;;18.75;8.20;;;;;;;;;;6290460;28;20052;-76
2024/02/02 11:26:59;;;;;;;17.85;10.25;;;;;;;;;;6271759;28;20048;-75
2024/02/02 11:30:06;;;;;;;16.45;11.07;;;;;;;;;;6280614;28;20060;-75
2024/02/02 11:33:36;;;;;;;19.40;14.73;;;;;;;;;;6274631;28;20620;-75
2024/02/02 11:37:11;;;;;;;14.95;10.88;;;;;;;;;;6307199;28;20044;-76
2024/02/02 11:40:13;;;;;;;15.52;10.15;;;;;;;;;;6215244;28;20073;-75
2024/02/02 11:43:17;;;;;;;10.40;8.73;;;;;;;;;;6297600;28;20051;-76
2024/02/02 11:46:23;;;;;;;16.60;10.13;;;;;;;;;;6274411;28;20349;-76
2024/02/02 11:49:32;;;;;;;10.55;5.95;;;;;;;;;;6277414;28;20067;-76
2024/02/02 11:52:43;;;;;;;18.35;10.80;;;;;;;;;;6286641;28;20040;-76
2024/02/02 11:55:47;;;;;;;12.13;8.93;;;;;;;;;;6268799;28;20052;-76
2024/02/02 11:58:56;;;;;;;12.38;7.78;;;;;;;;;;6271994;28;20552;-76
2024/02/02 12:02:25;;;;;;;13.43;9.00;;;;;;;;;;6270845;28;20055;-76
2024/02/02 12:05:38;;;;;;;17.13;9.70;;;;;;;;;;6292727;28;20044;-76
2024/02/02 12:09:14;;;;;;;12.20;7.35;;;;;;;;;;6283091;28;20048;-76
2024/02/02 12:12:23;;;;;;;13.77;9.60;;;;;;;;;;6270383;28;20040;-75
2024/02/02 12:15:26;;;;;;;8.95;6.78;;;;;;;;;;6299871;28;20308;-76
2024/02/02 12:18:28;;;;;;;14.13;9.45;;;;;;;;;;6309697;28;20077;-76
2024/02/02 12:21:31;;;;;;;10.70;8.32;;;;;;;;;;6283493;28;20075;-76
2024/02/02 12:24:34;;;;;;;13.25;7.78;;;;;;;;;;6281948;28;20060;-76
2024/02/02 12:27:37;;;;;;;15.70;10.73;;;;;;;;;;6286030;28;20612;-76
2024/02/02 12:30:40;;;;;;;19.42;10.45;;;;;;;;;;6270868;28;20556;-75
2024/02/02 12:33:42;;;;;;;14.57;10.07;;;;;;;;;;6274380;28;20059;-76
2024/02/02 12:36:44;;;;;;;18.00;11.25;;;;;;;;;;6289549;28;20139;-76
2024/02/02 12:39:52;;;;;;;13.23;9.50;;;;;;;;;;6271687;28;20047;-76
2024/02/02 12:42:56;;;;;;;12.55;8.07;;;;;;;;;;6292413;28;20032;-76
2024/02/02 12:45:59;;;;;;;12.45;9.07;;;;;;;;;;6272838;28;20044;-76
2024/02/02 12:49:01;;;;;;;15.65;10.63;;;;;;;;;;6287236;28;20083;-76
2024/02/02 12:52:06;;;;;;;20.35;14.50;;;;;;;;;;6308116;28;20432;-75
2024/02/02 12:55:08;;;;;;;15.43;11.43;;;;;;;;;;6272971;28;20056;-75
2024/02/02 12:58:11;;;;;;;10.90;6.55;;;;;;;;;;6265834;28;20180;-75
2024/02/02 13:01:15;;;;;;;12.85;9.25;;;;;;;;;;6284778;28;20036;-75
2024/02/02 13:04:18;;;;;;;14.15;9.77;;;;;;;;;;6271486;28;20103;-75
2024/02/02 13:07:23;;;;;;;18.30;11.23;;;;;;;;;;6305577;28;20571;-75
2024/02/02 13:10:36;;;;;;;11.70;7.35;;;;;;;;;;6261207;28;20601;-76
2024/02/02 13:13:42;;;;;;;10.93;6.88;;;;;;;;;;6298815;28;20036;-75
2024/02/02 13:16:44;;;;;;;16.38;11.18;;;;;;;;;;6274491;28;20051;-75
2024/02/02 13:19:57;;;;;;;16.50;10.30;;;;;;;;;;6299273;28;20228;-76
2024/02/02 13:23:10;;;;;;;10.18;6.78;;;;;;;;;;6280594;28;20056;-76
2024/02/02 13:26:12;;;;;;;15.70;8.70;;;;;;;;;;6281062;28;20036;-77
2024/02/02 13:29:25;;;;;;;18.65;12.48;;;;;;;;;;6295718;28;20422;-76
2024/02/02 13:32:33;;;;;;;14.73;9.00;;;;;;;;;;6285714;28;20493;-76
2024/02/02 13:35:39;;;;;;;18.95;11.25;;;;;;;;;;6253429;28;20091;-75
2024/02/02 13:38:43;;;;;;;13.98;9.38;;;;;;;;;;6308539;28;21004;-75
2024/02/02 13:41:46;;;;;;;16.58;10.52;;;;;;;;;;6271330;28;20082;-77
2024/02/02 13:44:49;;;;;;;17.58;11.73;;;;;;;;;;6302407;28;20062;-75
2024/02/02 13:47:59;;;;;;;17.38;11.27;;;;;;;;;;6287171;28;20051;-75
2024/02/02 13:51:04;;;;;;;27.02;16.33;;;;;;;;;;6288189;28;20138;-76
2024/02/02 13:54:08;;;;;;;21.85;11.50;;;;;;;;;;6274627;28;20040;-75
2024/02/02 13:57:11;;;;;;;29.05;15.85;;;;;;;;;;6292780;28;20614;-75
2024/02/02 14:00:15;;;;;;;21.98;11.98;;;;;;;;;;6308575;28;20044;-75
2024/02/02 14:03:21;;;;;;;18.83;9.70;;;;;;;;;;6272063;28;20032;-74
2024/02/02 14:06:23;;;;;;;22.58;15.57;;;;;;;;;;6307373;28;20200;-77
2024/02/02 14:09:26;;;;;;;18.55;11.63;;;;;;;;;;6288724;28;20094;-75
2024/02/02 14:12:29;;;;;;;16.05;10.75;;;;;;;;;;6261448;28;20043;-75
2024/02/02 14:15:38;;;;;;;19.15;12.77;;;;;;;;;;6257308;28;20067;-75
2024/02/02 14:18:41;;;;;;;20.20;13.25;;;;;;;;;;6288446;28;20142;-75
2024/02/02 14:21:43;;;;;;;17.92;10.18;;;;;;;;;;6274338;28;20044;-76
2024/02/02 14:24:47;;;;;;;20.08;12.18;;;;;;;;;;6329337;28;20036;-75
2024/02/02 14:27:49;;;;;;;23.95;15.43;;;;;;;;;;6298563;28;20432;-74
2024/02/02 14:30:59;;;;;;;20.55;13.18;;;;;;;;;;6300581;28;20124;-77
2024/02/02 14:34:01;;;;;;;16.92;11.15;;;;;;;;;;6268140;28;20075;-76
2024/02/02 14:37:04;;;;;;;21.23;13.18;;;;;;;;;;6286867;28;20048;-77
2024/02/02 14:40:11;;;;;;;16.38;10.48;;;;;;;;;;6275570;28;20044;-78
2024/02/02 14:43:13;;;;;;;22.15;12.73;;;;;;;;;;6289386;28;20379;-76
2024/02/02 14:46:20;;;;;;;20.02;12.70;;;;;;;;;;6290579;28;20043;-75
2024/02/02 14:49:24;;;;;;;26.83;15.43;;;;;;;;;;6288155;28;20052;-75
2024/02/02 14:52:28;;;;;;;26.40;13.95;;;;;;;;;;6287830;28;20040;-76
2024/02/02 14:55:31;;;;;;;25.42;14.40;;;;;;;;;;6311679;28;20044;-75
2024/02/02 14:58:37;;;;;;;16.17;9.40;;;;;;;;;;6288934;28;20051;-76
2024/02/02 15:01:40;;;;;;;22.83;13.70;;;;;;;;;;6315462;28;20055;-76
2024/02/02 15:04:42;;;;;;;20.60;12.90;;;;;;;;;;6290921;28;20116;-75
2024/02/02 15:07:44;;;;;;;25.55;13.25;;;;;;;;;;6292993;28;20072;-76
2024/02/02 15:10:47;;;;;;;32.60;16.50;;;;;;;;;;6311862;28;20052;-75
2024/02/02 15:13:50;;;;;;;24.63;14.93;;;;;;;;;;6292663;28;20043;-76
2024/02/02 15:16:55;;;;;;;22.23;13.63;;;;;;;;;;6276826;28;20041;-76
2024/02/02 15:19:57;;;;;;;17.95;10.18;;;;;;;;;;6316527;28;20052;-76
2024/02/02 15:23:01;;;;;;;21.23;13.18;;;;;;;;;;6298690;28;20143;-76
2024/02/02 15:26:03;;;;;;;22.40;12.63;;;;;;;;;;6306969;28;20044;-76
2024/02/02 15:29:07;;;;;;;22.52;13.52;;;;;;;;;;6272187;28;20041;-76
2024/02/02 15:32:10;;;;;;;24.30;13.10;;;;;;;;;;6278722;28;20046;-77
2024/02/02 15:35:15;;;;;;;22.85;13.82;;;;;;;;;;6287184;28;20048;-77
2024/02/02 15:38:18;;;;;;;16.85;8.55;;;;;;;;;;6309722;28;20481;-76
2024/02/02 15:41:21;;;;;;;16.80;12.07;;;;;;;;;;6318810;28;21102;-77
2024/02/02 15:44:24;;;;;;;27.10;16.13;;;;;;;;;;6260406;28;20139;-77
2024/02/02 15:47:28;;;;;;;27.77;15.10;;;;;;;;;;6291733;28;20119;-77
2024/02/02 15:50:30;;;;;;;16.63;10.63;;;;;;;;;;6285869;28;20940;-76
2024/02/02 15:53:33;;;;;;;21.50;12.57;;;;;;;;;;6284306;28;20589;-79
2024/02/02 15:56:36;;;;;;;22.50;15.50;;;;;;;;;;6263876;28;20106;-77
2024/02/02 15:59:40;;;;;;;19.60;11.23;;;;;;;;;;6285756;28;20047;-77
2024/02/02 16:02:44;;;;;;;35.78;21.80;;;;;;;;;;6303390;28;20059;-78
2024/02/02 16:05:47;;;;;;;22.45;15.52;;;;;;;;;;6271963;28;20747;-77
2024/02/02 16:08:50;;;;;;;24.95;14.85;;;;;;;;;;6302120;28;20044;-78
2024/02/02 16:11:53;;;;;;;20.85;13.85;;;;;;;;;;6289297;28;20055;-78
2024/02/02 16:14:56;;;;;;;23.77;13.50;;;;;;;;;;6288599;28;20071;-77
2024/02/02 16:17:59;;;;;;;20.35;11.63;;;;;;;;;;6271099;28;20860;-78
2024/02/02 16:21:02;;;;;;;23.08;12.55;;;;;;;;;;6293791;28;20051;-77
2024/02/02 16:24:04;;;;;;;22.23;14.25;;;;;;;;;;6295396;28;20059;-79
2024/02/02 16:27:07;;;;;;;22.02;12.93;;;;;;;;;;6277102;28;20044;-76
2024/02/02 16:30:12;;;;;;;28.02;14.88;;;;;;;;;;6275965;28;20141;-77
2024/02/02 16:33:15;;;;;;;22.90;13.80;;;;;;;;;;6307964;28;20036;-76
2024/02/02 16:36:18;;;;;;;27.25;14.48;;;;;;;;;;6301515;28;20047;-78
2024/02/02 16:39:20;;;;;;;27.00;14.68;;;;;;;;;;6294996;28;20070;-77
2024/02/02 16:42:22;;;;;;;28.40;16.08;;;;;;;;;;6315378;28;20049;-78
2024/02/02 16:45:25;;;;;;;33.70;21.52;;;;;;;;;;6275919;28;20777;-76
2024/02/02 16:48:27;;;;;;;35.33;23.10;;;;;;;;;;6280700;28;20756;-77
2024/02/02 16:51:30;;;;;;;41.95;20.50;;;;;;;;;;6290899;28;20052;-78
2024/02/02 16:54:33;;;;;;;38.17;21.58;;;;;;;;;;6288342;28;20040;-77
2024/02/02 16:57:38;;;;;;;47.42;27.02;;;;;;;;;;6294412;28;20047;-77
2024/02/02 17:00:41;;;;;;;44.80;26.65;;;;;;;;;;6279573;28;20052;-77
2024/02/02 17:03:45;;;;;;;43.60;22.73;;;;;;;;;;6285891;28;20721;-78
2024/02/02 17:06:47;;;;;;;40.00;22.23;;;;;;;;;;6294061;28;20046;-77
2024/02/02 17:09:50;;;;;;;38.10;23.75;;;;;;;;;;6281291;28;20044;-76
2024/02/02 17:12:52;;;;;;;40.08;21.85;;;;;;;;;;6266618;28;20048;-78
2024/02/02 17:15:55;;;;;;;43.33;22.75;;;;;;;;;;6303525;28;20131;-77
2024/02/02 17:18:57;;;;;;;45.97;23.95;;;;;;;;;;6308410;28;20048;-77
2024/02/02 17:22:00;;;;;;;48.92;27.27;;;;;;;;;;6276934;28;20036;-77
2024/02/02 17:25:02;;;;;;;34.85;22.20;;;;;;;;;;6289634;28;20059;-77
2024/02/02 17:28:04;;;;;;;45.55;22.35;;;;;;;;;;6255094;28;20080;-76
2024/02/02 17:31:10;;;;;;;43.00;24.27;;;;;;;;;;6287996;28;20040;-76
2024/02/02 17:34:14;;;;;;;49.30;26.10;;;;;;;;;;6270979;28;20040;-77
2024/02/02 17:37:18;;;;;;;41.00;23.15;;;;;;;;;;6287036;28;20048;-77
2024/02/02 17:40:21;;;;;;;40.63;22.30;;;;;;;;;;6270415;28;20055;-76
2024/02/02 17:43:26;;;;;;;31.90;16.48;;;;;;;;;;6276445;28;20043;-78
2024/02/02 17:46:30;;;;;;;32.42;17.73;;;;;;;;;;6289517;28;20202;-77
2024/02/02 17:49:33;;;;;;;29.30;17.13;;;;;;;;;;6308475;28;20051;-79
2024/02/02 17:52:47;;;;;;;34.05;16.75;;;;;;;;;;6289010;28;20040;-78
2024/02/02 17:55:49;;;;;;;33.40;15.80;;;;;;;;;;6275564;28;20128;-76
2024/02/02 17:58:54;;;;;;;44.47;25.10;;;;;;;;;;6290288;28;20037;-76
2024/02/02 18:02:00;;;;;;;40.58;21.80;;;;;;;;;;6311431;28;20048;-78
2024/02/02 18:05:04;;;;;;;43.88;23.55;;;;;;;;;;6306488;28;20040;-79